• Join FlightAware (Why Join?)
  • Login
  • US Flag 
10:26AM EDT


 

Airport Tracker/Info


-or-


 

Live Flight TrackerFlight Track Log ✈ SWA3926 ✈ 11-May-2013 ✈ KHOU - KECP

Flight Track Log - Related Links

Times and Time Zones

All times are in EDT time to prevent confusion due to time zone crossing. See the SWA3926 flight status page for this flight to view local times or setup timezone preferences in your user account.

Time Position Orientation Groundspeed Altitude Reporting Facility
EDT Latitude Longitude Course Direction KTS MPH feet Rate Location/Type
05:58PM 29.6056 -95.2208 146° Southeast 247 284 3,700  Level Houston Center
05:59PM 29.5786 -95.1642 119° Southeast 250 288 6,500 2,340 Climbing Houston Center
06:00PM 29.5956 -95.0808 77° East 278 320 8,500 2,040 Climbing Houston Center
06:01PM 29.6111 -94.9858 79° East 300 345 10,800 2,460 Climbing Houston Center
06:02PM 29.7101 -94.4896 84° East  Level FlightAware Approximate
06:02PM 29.6303 -94.8764 79° East 346 398 13,600  Level Houston Center
06:03PM 29.6536 -94.7367 79° East 373 429 16,100 2,220 Climbing Houston Center
06:04PM 29.6753 -94.6125 79° East 393 452 18,200 1,800 Climbing Houston Center
06:05PM 29.6972 -94.4786 79° East 422 486 19,800 1,800 Climbing Houston Center
06:06PM 29.7186 -94.3406 80° East 438 504 22,000 1,860 Climbing Houston Center
06:07PM 29.7047 -94.1975 96° East 448 516 23,700 1,920 Climbing Houston Center
06:08PM 29.6867 -94.0344 97° East 450 518 26,000 1,560 Climbing Houston Center
06:09PM 29.6861 -93.8861 90° East 466 536 26,900 1,080 Climbing Houston Center
06:10PM 29.6839 -93.7322 91° East 481 554 28,300 1,440 Climbing Houston Center
06:11PM 29.7000 -93.5756 83° East 496 571 29,900 1,140 Climbing Houston Center
06:12PM 29.7289 -93.4236 78° East 493 567 30,700 960 Climbing Houston Center
06:13PM 29.7583 -93.2639 78° East 511 588 31,900 1,260 Climbing Houston Center
06:14PM 29.7878 -93.1056 78° East 510 587 33,300 1,020 Climbing Houston Center
06:15PM 29.8225 -92.9181 78° East 505 581 34,100 720 Climbing Houston Center
06:16PM 29.8528 -92.7564 78° East 517 595 34,800 420 Climbing Houston Center
06:17PM 29.8828 -92.5947 78° East 518 596 35,000 60 Climbing Houston Center
06:18PM 29.9125 -92.4344 78° East 515 593 35,000  Level Houston Center
06:19PM 29.9417 -92.2742 78° East 514 592 35,000  Level Houston Center
06:20PM 29.9706 -92.1139 78° East 513 590 35,000  Level Houston Center
06:21PM 29.9989 -91.9508 79° East 518 596 35,000  Level Houston Center
06:22PM 30.0289 -91.7881 78° East 521 600 35,000  Level Houston Center
06:23PM 30.0622 -91.6033 78° East 519 597 35,000  Level Houston Center
06:24PM 30.0908 -91.4394 79° East 520 598 35,000  Level Houston Center
06:25PM 30.1183 -91.2761 79° East 521 600 35,000  Level Houston Center
06:27PM 30.1481 -91.1036 79° East  Level FlightAware Approximate
06:27PM 30.1764 -90.9481 79° East 523 602 35,000  Level Houston Center
06:28PM 30.2031 -90.7842 79° East 521 600 35,000  Level Houston Center
06:29PM 30.2358 -90.5872 79° East 519 597 35,000  Level Houston Center
06:30PM 30.2631 -90.4244 79° East 518 596 35,000  Level Houston Center
06:31PM 30.2900 -90.2647 79° East 511 588 35,000 -60 Level Houston Center
06:32PM 30.3161 -90.1033 79° East 509 586 34,900  Descending Houston Center
06:33PM 30.3414 -89.9447 79° East 503 579 35,000  Climbing Houston Center
06:34PM 30.3678 -89.7750 80° East 503 579 35,000  Level Houston Center
06:35PM 30.3947 -89.6164 79° East 493 567 35,000 -60 Level Houston Center
06:36PM 30.4183 -89.4644 80° East 483 556 34,900 -540 Descending Houston Center
06:37PM 30.4422 -89.3156 79° East 472 543 34,000 -960 Descending Houston Center
06:38PM 30.4639 -89.1636 81° East 480 552 33,000 -960 Descending Houston Center
06:39PM 30.4869 -89.0125 80° East 477 549 32,100 -900 Descending Houston Center
06:40PM 30.5094 -88.8653 80° East 480 552 31,200 -600 Descending Houston Center
06:42PM 30.5361 -88.6817 80° East 482 555 31,000 -120 Descending Houston Center
06:43PM 30.5592 -88.5289 80° East 486 559 31,000 -480 Level Houston Center
06:44PM 30.5839 -88.3753 79° East 489 563 30,100 -900 Descending Houston Center
06:45PM 30.6064 -88.2250 80° East 480 552 29,200 -1,260 Descending Houston Center
06:46PM 30.6286 -88.0767 80° East 473 544 27,600 -1,800 Descending Houston Center
06:47PM 30.6500 -87.9328 80° East 460 529 25,600 -1,320 Descending Houston Center
06:48PM 30.6706 -87.7928 80° East 447 514 25,000 -360 Descending Houston Center
06:49PM 30.6889 -87.6583 81° East 439 505 25,000  Level Jacksonville Center
06:50PM 30.7108 -87.5144 80° East 439 505 25,000 -300 Level Jacksonville Center
06:51PM 30.7306 -87.3728 81° East 446 513 24,500 -540 Descending Jacksonville Center
06:52PM 30.7500 -87.2336 81° East 441 507 24,000 -300 Descending Jacksonville Center
06:53PM 30.7711 -87.0969 80° East 441 507 24,000 -540 Level Jacksonville Center
06:54PM 30.7903 -86.9575 81° East 436 502 23,000 -1,740 Descending Jacksonville Center
06:55PM 30.8114 -86.8206 80° East 430 495 20,600 -2,040 Descending Jacksonville Center
06:56PM 30.8281 -86.6881 82° East 423 487 19,000 -900 Descending Jacksonville Center
06:57PM 30.8231 -86.5694 93° East 396 456 18,900  Descending Jacksonville Center
06:58PM 30.8219 -86.4631 91° East 355 409 19,000 -3,960 Climbing Jacksonville Center
06:59PM 30.8186 -86.3542 92° East 340 391 11,000 -3,060 Descending Jacksonville Center
07:00PM 30.8158 -86.2281 91° East 356 410 12,900 -60 Climbing Jacksonville Center
07:01PM 30.8000 -86.1139 99° East 366 421 10,900 -1,800 Descending Jacksonville Center
07:02PM 30.7369 -86.0417 135° Southeast 318 366 9,300 -1,860 Descending Jacksonville Center
07:03PM 30.6758 -85.9842 141° Southeast 295 339 7,200 -2,280 Descending Jacksonville Center
07:04PM 30.6103 -85.9289 144° Southeast 295 339 4,800 -2,100 Descending Jacksonville Center
07:05PM 30.5506 -85.8908 151° Southeast 272 313 3,000 -900 Descending Jacksonville Center
07:06PM 30.5011 -85.8628 154° Southeast 231 266 3,000 -600 Level Jacksonville Center
07:07PM 30.4517 -85.8372 156° South 207 238 1,800 -1,020 Descending Jacksonville Center
07:08PM 30.4083 -85.8189 160° South 185 213 1,000 -780 Descending Jacksonville Center
07:09PM 30.3753 -85.8011 155° Southeast 157 181 300 -720 Descending Jacksonville Center